BAW694 EGLL-LGIR
Flight info
| Callsign | BAW694 |
|---|---|
| Flight time | 3h 32m |
| Altitude | 35000 |
| Route | MODMI1J MODMI M185 MID L612 BENBO UL612 VEULE DCT TEPRI UN491 POGZI DCT GELTA DCT LUVAL DCT SHARA DCT DEVDI DCT RIPUS DCT RESIA DCT ADOSA DCT LABIN DCT IPKIS DCT SAL DCT UVODI DCT AMUGO DCT VAKSU DCT KOFER DCT PINDO UL607 PIKOS DCT KEA UL607 GIVIS T514 XAVIS XAVIS1A |
| Aircraft | A21N/M-SDE3FGIJ1LRWXYZ/SB1G1 |
Departure
| Time | 2026-05-06 17:21 |
|---|---|
| Airport | London Heathrow Airport (EGLL) |
Arrival
| Time | 2026-05-06 20:53 |
|---|---|
| Airport | Heraklion International Nikos Kazantzakis Airport (LGIR) |
| Time | Latitude | Longitude | Altitude | Speed | Heading |
|---|---|---|---|---|---|
| 2026-05-06 16:21 | 51.47399 | -0.48760 | 95 ft | 0 kts | 179° |
| 2026-05-06 17:11 | 51.47408 | -0.48760 | 92 ft | 4 kts | 179° |
| 2026-05-06 17:11 | 51.47434 | -0.48760 | 92 ft | 3 kts | 179° |
| 2026-05-06 17:12 | 51.47456 | -0.48761 | 92 ft | 4 kts | 172° |
| 2026-05-06 17:12 | 51.47479 | -0.48774 | 93 ft | 4 kts | 134° |
| 2026-05-06 17:12 | 51.47486 | -0.48804 | 92 ft | 3 kts | 89° |
| 2026-05-06 17:12 | 51.47486 | -0.48812 | 92 ft | 0 kts | 89° |
| 2026-05-06 17:15 | 51.47486 | -0.48797 | 92 ft | 3 kts | 89° |
| 2026-05-06 17:15 | 51.47486 | -0.48756 | 92 ft | 4 kts | 89° |
| 2026-05-06 17:16 | 51.47486 | -0.48700 | 94 ft | 6 kts | 89° |
| 2026-05-06 17:16 | 51.47487 | -0.48627 | 95 ft | 7 kts | 89° |
| 2026-05-06 17:16 | 51.47487 | -0.48538 | 93 ft | 9 kts | 90° |
| 2026-05-06 17:16 | 51.47440 | -0.48478 | 93 ft | 10 kts | 173° |
| 2026-05-06 17:17 | 51.47364 | -0.48475 | 92 ft | 12 kts | 179° |
| 2026-05-06 17:17 | 51.47308 | -0.48474 | 92 ft | 13 kts | 179° |
| 2026-05-06 17:17 | 51.47216 | -0.48472 | 93 ft | 14 kts | 179° |
| 2026-05-06 17:17 | 51.47114 | -0.48469 | 94 ft | 15 kts | 179° |
| 2026-05-06 17:18 | 51.47005 | -0.48473 | 92 ft | 16 kts | 182° |
| 2026-05-06 17:18 | 51.46891 | -0.48471 | 94 ft | 17 kts | 178° |
| 2026-05-06 17:18 | 51.46767 | -0.48464 | 92 ft | 18 kts | 180° |
| 2026-05-06 17:18 | 51.46637 | -0.48465 | 93 ft | 19 kts | 180° |
| 2026-05-06 17:19 | 51.46520 | -0.48466 | 94 ft | 10 kts | 180° |
| 2026-05-06 17:19 | 51.46477 | -0.48386 | 95 ft | 11 kts | 91° |
| 2026-05-06 17:19 | 51.46478 | -0.48321 | 94 ft | 0 kts | 89° |
| 2026-05-06 17:20 | 51.46478 | -0.48273 | 94 ft | 25 kts | 89° |
| 2026-05-06 17:20 | 51.46482 | -0.47604 | 91 ft | 94 kts | 89° |
| 2026-05-06 17:20 | 51.46489 | -0.46236 | 93 ft | 149 kts | 90° |
| 2026-05-06 17:20 | 51.46493 | -0.44386 | 349 ft | 170 kts | 88° |
| 2026-05-06 17:21 | 51.46473 | -0.42501 | 997 ft | 168 kts | 87° |
| 2026-05-06 17:21 | 51.46453 | -0.40619 | 1630 ft | 173 kts | 90° |
| 2026-05-06 17:21 | 51.45965 | -0.38716 | 1904 ft | 204 kts | 132° |
| 2026-05-06 17:21 | 51.44718 | -0.37440 | 2419 ft | 220 kts | 152° |
| 2026-05-06 17:22 | 51.43190 | -0.36678 | 2832 ft | 243 kts | 165° |
| 2026-05-06 17:22 | 51.41470 | -0.35965 | 3277 ft | 265 kts | 166° |
| 2026-05-06 17:22 | 51.39606 | -0.35790 | 3943 ft | 274 kts | 190° |
| 2026-05-06 17:22 | 51.37827 | -0.36842 | 4818 ft | 272 kts | 208° |
| 2026-05-06 17:23 | 51.36153 | -0.38273 | 5538 ft | 274 kts | 209° |
| 2026-05-06 17:23 | 51.34555 | -0.39637 | 5860 ft | 277 kts | 208° |
| 2026-05-06 17:23 | 51.33013 | -0.40918 | 6018 ft | 279 kts | 208° |
| 2026-05-06 17:23 | 51.31283 | -0.42324 | 6184 ft | 278 kts | 207° |
| 2026-05-06 17:24 | 51.29546 | -0.43699 | 6245 ft | 279 kts | 207° |
| 2026-05-06 17:24 | 51.27808 | -0.45068 | 6268 ft | 279 kts | 207° |
| 2026-05-06 17:24 | 51.26076 | -0.46444 | 6501 ft | 278 kts | 207° |
| 2026-05-06 17:24 | 51.24340 | -0.47835 | 6296 ft | 281 kts | 207° |
| 2026-05-06 17:25 | 51.22600 | -0.49224 | 6691 ft | 280 kts | 207° |
| 2026-05-06 17:25 | 51.20837 | -0.50596 | 7463 ft | 283 kts | 207° |
| 2026-05-06 17:25 | 51.19058 | -0.51970 | 8293 ft | 285 kts | 207° |
| 2026-05-06 17:25 | 51.17283 | -0.53343 | 9098 ft | 289 kts | 207° |
| 2026-05-06 17:26 | 51.15461 | -0.54750 | 9912 ft | 292 kts | 207° |
| 2026-05-06 17:26 | 51.13594 | -0.56193 | 10389 ft | 308 kts | 207° |
| 2026-05-06 17:26 | 51.11603 | -0.57733 | 10689 ft | 328 kts | 207° |
| 2026-05-06 17:26 | 51.09483 | -0.59367 | 10979 ft | 348 kts | 206° |
| 2026-05-06 17:27 | 51.07141 | -0.60663 | 11406 ft | 362 kts | 191° |
| 2026-05-06 17:27 | 51.04621 | -0.60717 | 12094 ft | 366 kts | 171° |
| 2026-05-06 17:27 | 51.02200 | -0.59450 | 12693 ft | 371 kts | 151° |
| 2026-05-06 17:27 | 51.00037 | -0.57191 | 13403 ft | 374 kts | 143° |
| 2026-05-06 17:28 | 50.97923 | -0.54758 | 14134 ft | 375 kts | 144° |
| 2026-05-06 17:28 | 50.95787 | -0.52362 | 14806 ft | 377 kts | 144° |
| 2026-05-06 17:28 | 50.93613 | -0.49997 | 15396 ft | 381 kts | 146° |
| 2026-05-06 17:28 | 50.91399 | -0.47625 | 15984 ft | 385 kts | 146° |
| 2026-05-06 17:29 | 50.89169 | -0.45245 | 16603 ft | 387 kts | 146° |
| 2026-05-06 17:29 | 50.86934 | -0.42864 | 17166 ft | 391 kts | 146° |
| 2026-05-06 17:29 | 50.84640 | -0.40431 | 17612 ft | 398 kts | 146° |
| 2026-05-06 17:29 | 50.82326 | -0.37979 | 18055 ft | 404 kts | 146° |
| 2026-05-06 17:30 | 50.79975 | -0.35492 | 18603 ft | 405 kts | 146° |
| 2026-05-06 17:30 | 50.77637 | -0.33026 | 19162 ft | 405 kts | 146° |
| 2026-05-06 17:30 | 50.75283 | -0.30547 | 19651 ft | 407 kts | 146° |
| 2026-05-06 17:30 | 50.72926 | -0.28064 | 20170 ft | 408 kts | 146° |
| 2026-05-06 17:31 | 50.70545 | -0.25559 | 20622 ft | 412 kts | 147° |
| 2026-05-06 17:31 | 50.68152 | -0.23047 | 21097 ft | 414 kts | 147° |
| 2026-05-06 17:31 | 50.65738 | -0.20527 | 21490 ft | 418 kts | 147° |
| 2026-05-06 17:31 | 50.63301 | -0.17984 | 21932 ft | 422 kts | 147° |
| 2026-05-06 17:32 | 50.60847 | -0.15418 | 22400 ft | 424 kts | 147° |
| 2026-05-06 17:32 | 50.58394 | -0.12853 | 22926 ft | 425 kts | 147° |
| 2026-05-06 17:32 | 50.55926 | -0.10275 | 23356 ft | 428 kts | 147° |
| 2026-05-06 17:32 | 50.53438 | -0.07682 | 23800 ft | 429 kts | 147° |
| 2026-05-06 17:33 | 50.50944 | -0.05084 | 24167 ft | 432 kts | 147° |
| 2026-05-06 17:33 | 50.48420 | -0.02458 | 24497 ft | 437 kts | 147° |
| 2026-05-06 17:33 | 50.45882 | 0.00175 | 24869 ft | 439 kts | 147° |
| 2026-05-06 17:33 | 50.43334 | 0.02818 | 25352 ft | 438 kts | 147° |
| 2026-05-06 17:34 | 50.40791 | 0.05457 | 25774 ft | 439 kts | 147° |
| 2026-05-06 17:34 | 50.38239 | 0.08100 | 26166 ft | 440 kts | 147° |
| 2026-05-06 17:34 | 50.35679 | 0.10743 | 26544 ft | 442 kts | 147° |
| 2026-05-06 17:34 | 50.33138 | 0.13365 | 26903 ft | 443 kts | 147° |
| 2026-05-06 17:35 | 50.30563 | 0.16040 | 27263 ft | 445 kts | 147° |
| 2026-05-06 17:35 | 50.27980 | 0.18712 | 27648 ft | 446 kts | 147° |
| 2026-05-06 17:35 | 50.25382 | 0.21387 | 27992 ft | 447 kts | 147° |
| 2026-05-06 17:36 | 50.20161 | 0.26737 | 28633 ft | 451 kts | 148° |
| 2026-05-06 17:36 | 50.17516 | 0.29450 | 28903 ft | 453 kts | 147° |
| 2026-05-06 17:36 | 50.14883 | 0.32166 | 29241 ft | 453 kts | 147° |
| 2026-05-06 17:36 | 50.12262 | 0.34867 | 29710 ft | 451 kts | 147° |
| 2026-05-06 17:37 | 50.09642 | 0.37557 | 30102 ft | 450 kts | 148° |
| 2026-05-06 17:37 | 50.07035 | 0.40229 | 30440 ft | 449 kts | 148° |
| 2026-05-06 17:37 | 50.04420 | 0.42905 | 30645 ft | 451 kts | 147° |
| 2026-05-06 17:37 | 50.01805 | 0.45574 | 31021 ft | 448 kts | 147° |
| 2026-05-06 17:38 | 49.99204 | 0.48223 | 31419 ft | 445 kts | 147° |
| 2026-05-06 17:38 | 49.96608 | 0.50863 | 31759 ft | 444 kts | 147° |
| 2026-05-06 17:38 | 49.94024 | 0.53496 | 32063 ft | 444 kts | 147° |
| 2026-05-06 17:38 | 49.91477 | 0.56084 | 32328 ft | 444 kts | 147° |
| 2026-05-06 17:39 | 49.88848 | 0.58746 | 32599 ft | 444 kts | 147° |
| 2026-05-06 17:39 | 49.86298 | 0.61438 | 32872 ft | 444 kts | 142° |
| 2026-05-06 17:39 | 49.84052 | 0.64620 | 33097 ft | 444 kts | 133° |
| 2026-05-06 17:39 | 49.81961 | 0.68147 | 33337 ft | 444 kts | 132° |
| 2026-05-06 17:40 | 49.79894 | 0.71689 | 33591 ft | 443 kts | 132° |
| 2026-05-06 17:40 | 49.77821 | 0.75222 | 33843 ft | 443 kts | 132° |
| 2026-05-06 17:40 | 49.75750 | 0.78747 | 34044 ft | 443 kts | 132° |
| 2026-05-06 17:40 | 49.73670 | 0.82275 | 34239 ft | 442 kts | 132° |
| 2026-05-06 17:41 | 49.71593 | 0.85785 | 34378 ft | 443 kts | 132° |
| 2026-05-06 17:41 | 49.69504 | 0.89296 | 34528 ft | 444 kts | 132° |
| 2026-05-06 17:41 | 49.67413 | 0.92804 | 34688 ft | 444 kts | 132° |
| 2026-05-06 17:41 | 49.65320 | 0.96316 | 34812 ft | 445 kts | 133° |
| 2026-05-06 17:42 | 49.63223 | 0.99831 | 34951 ft | 445 kts | 133° |
| 2026-05-06 17:42 | 49.61122 | 1.03357 | 34995 ft | 446 kts | 133° |
| 2026-05-06 17:42 | 49.56918 | 1.10380 | 34983 ft | 446 kts | 133° |
| 2026-05-06 17:43 | 49.52704 | 1.17411 | 34967 ft | 446 kts | 133° |
| 2026-05-06 17:43 | 49.48499 | 1.24417 | 34968 ft | 446 kts | 133° |
| 2026-05-06 17:44 | 49.44282 | 1.31427 | 34963 ft | 446 kts | 133° |
| 2026-05-06 17:44 | 49.40060 | 1.38405 | 34965 ft | 447 kts | 133° |
| 2026-05-06 17:45 | 49.35855 | 1.45352 | 34960 ft | 446 kts | 133° |
| 2026-05-06 17:45 | 49.31638 | 1.52336 | 34957 ft | 446 kts | 133° |
| 2026-05-06 17:46 | 49.27399 | 1.59298 | 34947 ft | 447 kts | 133° |
| 2026-05-06 17:46 | 49.23154 | 1.66243 | 34937 ft | 447 kts | 133° |
| 2026-05-06 17:47 | 49.18893 | 1.73203 | 34937 ft | 448 kts | 133° |
| 2026-05-06 17:47 | 49.14630 | 1.80142 | 34931 ft | 448 kts | 133° |
| 2026-05-06 17:48 | 49.10353 | 1.87070 | 34933 ft | 448 kts | 133° |
| 2026-05-06 17:48 | 49.06070 | 1.93994 | 34954 ft | 450 kts | 134° |
| 2026-05-06 17:49 | 49.02008 | 2.00564 | 34941 ft | 456 kts | 133° |
| 2026-05-06 17:49 | 48.97661 | 2.07583 | 34933 ft | 456 kts | 134° |
| 2026-05-06 17:50 | 48.93312 | 2.14576 | 34937 ft | 455 kts | 134° |
| 2026-05-06 17:50 | 48.88963 | 2.21545 | 34936 ft | 454 kts | 134° |
| 2026-05-06 17:51 | 48.84611 | 2.28490 | 34936 ft | 454 kts | 134° |
| 2026-05-06 17:51 | 48.80281 | 2.35400 | 34938 ft | 454 kts | 134° |
| 2026-05-06 17:52 | 48.75926 | 2.42316 | 34933 ft | 453 kts | 134° |
| 2026-05-06 17:52 | 48.71561 | 2.49234 | 34933 ft | 453 kts | 134° |
| 2026-05-06 17:53 | 48.67204 | 2.56122 | 34909 ft | 453 kts | 134° |
| 2026-05-06 17:53 | 48.62836 | 2.63010 | 34910 ft | 453 kts | 134° |
| 2026-05-06 17:54 | 48.58496 | 2.69918 | 34903 ft | 454 kts | 131° |
| 2026-05-06 17:54 | 48.56669 | 2.73812 | 34902 ft | 455 kts | 119° |
| 2026-05-06 17:54 | 48.55436 | 2.78201 | 34903 ft | 456 kts | 106° |
| 2026-05-06 17:55 | 48.54703 | 2.87645 | 34909 ft | 456 kts | 92° |
| 2026-05-06 17:55 | 48.54445 | 2.97204 | 34906 ft | 455 kts | 93° |
| 2026-05-06 17:56 | 48.54192 | 3.05153 | 34903 ft | 455 kts | 93° |
| 2026-05-06 17:56 | 48.53858 | 3.14684 | 34902 ft | 454 kts | 94° |
| 2026-05-06 17:57 | 48.53515 | 3.24210 | 34902 ft | 454 kts | 94° |
| 2026-05-06 17:57 | 48.53168 | 3.33696 | 34904 ft | 453 kts | 94° |
| 2026-05-06 17:58 | 48.52816 | 3.43181 | 34902 ft | 453 kts | 94° |
| 2026-05-06 17:58 | 48.52455 | 3.52683 | 34902 ft | 452 kts | 94° |
| 2026-05-06 17:59 | 48.52090 | 3.62172 | 34900 ft | 453 kts | 94° |
| 2026-05-06 17:59 | 48.51710 | 3.71651 | 34902 ft | 453 kts | 94° |
| 2026-05-06 18:00 | 48.51332 | 3.81072 | 34905 ft | 453 kts | 94° |
| 2026-05-06 18:00 | 48.50934 | 3.90618 | 34907 ft | 453 kts | 94° |
| 2026-05-06 18:01 | 48.50532 | 4.00036 | 34906 ft | 453 kts | 96° |
| 2026-05-06 18:01 | 48.49201 | 4.09291 | 34900 ft | 452 kts | 106° |
| 2026-05-06 18:02 | 48.47516 | 4.18416 | 34907 ft | 451 kts | 106° |
| 2026-05-06 18:02 | 48.45851 | 4.27563 | 34911 ft | 452 kts | 106° |
| 2026-05-06 18:03 | 48.44170 | 4.36680 | 34907 ft | 451 kts | 106° |
| 2026-05-06 18:03 | 48.42489 | 4.45794 | 34907 ft | 452 kts | 106° |
| 2026-05-06 18:04 | 48.40796 | 4.54900 | 34913 ft | 451 kts | 107° |
| 2026-05-06 18:04 | 48.39094 | 4.63993 | 34880 ft | 451 kts | 107° |
| 2026-05-06 18:05 | 48.37399 | 4.73090 | 34893 ft | 452 kts | 107° |
| 2026-05-06 18:05 | 48.35688 | 4.82179 | 34893 ft | 451 kts | 107° |
| 2026-05-06 18:06 | 48.33971 | 4.91260 | 34905 ft | 451 kts | 107° |
| 2026-05-06 18:06 | 48.32248 | 5.00329 | 34893 ft | 451 kts | 107° |
| 2026-05-06 18:07 | 48.30526 | 5.09355 | 34892 ft | 452 kts | 107° |
| 2026-05-06 18:07 | 48.28775 | 5.18422 | 34894 ft | 452 kts | 108° |
| 2026-05-06 18:08 | 48.26955 | 5.27451 | 34885 ft | 452 kts | 108° |
| 2026-05-06 18:08 | 48.25128 | 5.36476 | 34886 ft | 452 kts | 108° |
| 2026-05-06 18:09 | 48.23305 | 5.45517 | 34888 ft | 452 kts | 108° |
| 2026-05-06 18:09 | 48.21472 | 5.54544 | 34887 ft | 453 kts | 108° |
| 2026-05-06 18:10 | 48.19624 | 5.63573 | 34876 ft | 453 kts | 109° |
| 2026-05-06 18:10 | 48.17779 | 5.72590 | 34879 ft | 453 kts | 109° |
| 2026-05-06 18:11 | 48.15919 | 5.81610 | 34878 ft | 453 kts | 109° |
| 2026-05-06 18:11 | 48.14052 | 5.90615 | 34875 ft | 453 kts | 109° |
| 2026-05-06 18:12 | 48.12179 | 5.99640 | 34872 ft | 454 kts | 109° |
| 2026-05-06 18:12 | 48.10293 | 6.08659 | 34875 ft | 454 kts | 109° |
| 2026-05-06 18:13 | 48.08400 | 6.17676 | 34877 ft | 454 kts | 109° |
| 2026-05-06 18:13 | 48.06517 | 6.26634 | 34871 ft | 455 kts | 109° |
| 2026-05-06 18:14 | 48.04609 | 6.35661 | 34874 ft | 455 kts | 110° |
| 2026-05-06 18:14 | 48.02689 | 6.44670 | 34877 ft | 455 kts | 110° |
| 2026-05-06 18:15 | 48.00773 | 6.53671 | 34879 ft | 455 kts | 110° |
| 2026-05-06 18:15 | 47.98843 | 6.62689 | 34878 ft | 455 kts | 110° |
| 2026-05-06 18:16 | 47.96728 | 6.71579 | 34880 ft | 454 kts | 114° |
| 2026-05-06 18:16 | 47.94369 | 6.80305 | 34878 ft | 454 kts | 115° |
| 2026-05-06 18:17 | 47.91996 | 6.89039 | 34884 ft | 455 kts | 115° |
| 2026-05-06 18:17 | 47.89620 | 6.97773 | 34886 ft | 454 kts | 115° |
| 2026-05-06 18:18 | 47.87255 | 7.06425 | 34883 ft | 454 kts | 115° |
| 2026-05-06 18:18 | 47.84866 | 7.15138 | 34878 ft | 455 kts | 115° |
| 2026-05-06 18:19 | 47.82465 | 7.23856 | 34876 ft | 455 kts | 115° |
| 2026-05-06 18:19 | 47.80056 | 7.32571 | 34891 ft | 455 kts | 116° |
| 2026-05-06 18:20 | 47.77636 | 7.41288 | 34892 ft | 456 kts | 116° |
| 2026-05-06 18:20 | 47.75211 | 7.50006 | 34897 ft | 456 kts | 116° |
| 2026-05-06 18:21 | 47.72259 | 7.58174 | 34901 ft | 450 kts | 129° |
| 2026-05-06 18:21 | 47.68548 | 7.65612 | 34902 ft | 448 kts | 131° |
| 2026-05-06 18:22 | 47.64821 | 7.73053 | 34899 ft | 449 kts | 130° |
| 2026-05-06 18:22 | 47.61103 | 7.80517 | 34907 ft | 450 kts | 131° |
| 2026-05-06 18:23 | 47.57384 | 7.87957 | 34899 ft | 449 kts | 131° |
| 2026-05-06 18:23 | 47.53670 | 7.95374 | 34896 ft | 448 kts | 131° |
| 2026-05-06 18:24 | 47.49948 | 8.02791 | 34910 ft | 449 kts | 131° |
| 2026-05-06 18:24 | 47.46221 | 8.10189 | 34904 ft | 449 kts | 131° |
| 2026-05-06 18:25 | 47.42482 | 8.17590 | 34902 ft | 449 kts | 132° |
| 2026-05-06 18:25 | 47.38741 | 8.24989 | 34904 ft | 449 kts | 132° |
| 2026-05-06 18:26 | 47.34999 | 8.32374 | 34899 ft | 450 kts | 132° |
| 2026-05-06 18:26 | 47.31244 | 8.39756 | 34904 ft | 450 kts | 132° |
| 2026-05-06 18:27 | 47.27495 | 8.47104 | 34903 ft | 451 kts | 132° |
| 2026-05-06 18:27 | 47.23778 | 8.54533 | 34900 ft | 452 kts | 131° |
| 2026-05-06 18:28 | 47.20075 | 8.62032 | 34906 ft | 453 kts | 131° |
| 2026-05-06 18:28 | 47.16363 | 8.69523 | 34906 ft | 453 kts | 132° |
| 2026-05-06 18:29 | 47.12637 | 8.77019 | 34910 ft | 453 kts | 132° |
| 2026-05-06 18:29 | 47.08903 | 8.84517 | 34911 ft | 454 kts | 132° |
| 2026-05-06 18:30 | 47.05164 | 8.92003 | 34912 ft | 455 kts | 132° |
| 2026-05-06 18:30 | 47.01420 | 8.99475 | 34907 ft | 455 kts | 132° |
| 2026-05-06 18:31 | 46.97664 | 9.06953 | 34903 ft | 455 kts | 132° |
| 2026-05-06 18:31 | 46.93898 | 9.14431 | 34892 ft | 454 kts | 133° |
| 2026-05-06 18:32 | 46.90141 | 9.21863 | 34903 ft | 454 kts | 133° |
| 2026-05-06 18:32 | 46.86376 | 9.29303 | 34895 ft | 454 kts | 133° |
| 2026-05-06 18:33 | 46.82603 | 9.36732 | 34887 ft | 455 kts | 133° |
| 2026-05-06 18:33 | 46.78828 | 9.44144 | 34885 ft | 455 kts | 133° |
| 2026-05-06 18:34 | 46.75070 | 9.51498 | 34893 ft | 455 kts | 133° |
| 2026-05-06 18:34 | 46.71282 | 9.58893 | 34905 ft | 455 kts | 133° |
| 2026-05-06 18:35 | 46.67495 | 9.66296 | 34916 ft | 455 kts | 134° |
| 2026-05-06 18:35 | 46.63702 | 9.73677 | 34936 ft | 454 kts | 134° |
| 2026-05-06 18:36 | 46.59908 | 9.81038 | 34915 ft | 457 kts | 134° |
| 2026-05-06 18:36 | 46.56092 | 9.88414 | 34937 ft | 455 kts | 134° |
| 2026-05-06 18:37 | 46.52920 | 9.94525 | 34922 ft | 455 kts | 134° |
| 2026-05-06 18:37 | 46.48437 | 10.03078 | 34913 ft | 455 kts | 137° |
| 2026-05-06 18:38 | 46.46241 | 10.06302 | 34934 ft | 444 kts | 146° |
| 2026-05-06 18:38 | 46.44656 | 10.08253 | 34925 ft | 442 kts | 148° |
| 2026-05-06 18:38 | 46.40227 | 10.14448 | 34931 ft | 458 kts | 132° |
| 2026-05-06 18:39 | 46.36753 | 10.22219 | 34928 ft | 460 kts | 130° |
| 2026-05-06 18:40 | 46.31498 | 10.33819 | 34930 ft | 459 kts | 131° |
| 2026-05-06 18:40 | 46.27967 | 10.41500 | 34933 ft | 457 kts | 131° |
| 2026-05-06 18:41 | 46.24454 | 10.49117 | 34932 ft | 457 kts | 131° |
| 2026-05-06 18:41 | 46.20925 | 10.56742 | 34943 ft | 457 kts | 131° |
| 2026-05-06 18:42 | 46.17385 | 10.64362 | 34948 ft | 456 kts | 131° |
| 2026-05-06 18:42 | 46.13849 | 10.71959 | 34937 ft | 456 kts | 131° |
| 2026-05-06 18:43 | 46.10310 | 10.79547 | 34936 ft | 456 kts | 132° |
| 2026-05-06 18:43 | 46.06766 | 10.87127 | 34953 ft | 456 kts | 132° |
| 2026-05-06 18:44 | 46.03204 | 10.94718 | 34953 ft | 457 kts | 132° |
| 2026-05-06 18:44 | 45.99645 | 11.02285 | 34948 ft | 455 kts | 132° |
| 2026-05-06 18:45 | 45.96088 | 11.09820 | 34936 ft | 455 kts | 132° |
| 2026-05-06 18:45 | 45.92541 | 11.17328 | 34934 ft | 454 kts | 132° |
| 2026-05-06 18:46 | 45.88987 | 11.24829 | 34928 ft | 454 kts | 133° |
| 2026-05-06 18:46 | 45.85432 | 11.32292 | 34932 ft | 453 kts | 132° |
| 2026-05-06 18:47 | 45.81900 | 11.39708 | 34928 ft | 452 kts | 133° |
| 2026-05-06 18:47 | 45.78346 | 11.47147 | 34930 ft | 453 kts | 133° |
| 2026-05-06 18:48 | 45.74781 | 11.54577 | 34914 ft | 452 kts | 133° |
| 2026-05-06 18:48 | 45.71220 | 11.61998 | 34906 ft | 452 kts | 133° |
| 2026-05-06 18:49 | 45.67648 | 11.69414 | 34904 ft | 452 kts | 133° |
| 2026-05-06 18:49 | 45.64073 | 11.76809 | 34903 ft | 451 kts | 133° |
| 2026-05-06 18:50 | 45.60503 | 11.84185 | 34900 ft | 452 kts | 133° |
| 2026-05-06 18:50 | 45.56915 | 11.91580 | 34898 ft | 452 kts | 133° |
| 2026-05-06 18:51 | 45.53323 | 11.98950 | 34901 ft | 452 kts | 133° |
| 2026-05-06 18:51 | 45.49730 | 12.06307 | 34900 ft | 453 kts | 133° |
| 2026-05-06 18:52 | 45.46127 | 12.13679 | 34887 ft | 453 kts | 133° |
| 2026-05-06 18:52 | 45.42519 | 12.21031 | 34875 ft | 453 kts | 133° |
| 2026-05-06 18:53 | 45.38900 | 12.28392 | 34875 ft | 454 kts | 133° |
| 2026-05-06 18:53 | 45.35280 | 12.35723 | 34875 ft | 456 kts | 133° |
| 2026-05-06 18:54 | 45.31636 | 12.43104 | 34876 ft | 457 kts | 133° |
| 2026-05-06 18:54 | 45.27971 | 12.50497 | 34880 ft | 458 kts | 133° |
| 2026-05-06 18:55 | 45.24296 | 12.57891 | 34886 ft | 459 kts | 133° |
| 2026-05-06 18:55 | 45.20604 | 12.65285 | 34885 ft | 459 kts | 133° |
| 2026-05-06 18:56 | 45.16913 | 12.72692 | 34886 ft | 460 kts | 133° |
| 2026-05-06 18:56 | 45.13210 | 12.80080 | 34896 ft | 460 kts | 133° |
| 2026-05-06 18:57 | 45.09495 | 12.87471 | 34898 ft | 461 kts | 133° |
| 2026-05-06 18:57 | 45.05780 | 12.94857 | 34900 ft | 461 kts | 133° |
| 2026-05-06 18:58 | 45.02048 | 13.02239 | 34906 ft | 461 kts | 133° |
| 2026-05-06 18:58 | 44.98338 | 13.09569 | 34908 ft | 461 kts | 133° |
| 2026-05-06 18:59 | 44.94633 | 13.16967 | 34906 ft | 461 kts | 133° |
| 2026-05-06 18:59 | 44.90933 | 13.24341 | 34914 ft | 461 kts | 133° |
| 2026-05-06 19:00 | 44.87215 | 13.31728 | 34921 ft | 461 kts | 133° |
| 2026-05-06 19:00 | 44.83500 | 13.39107 | 34921 ft | 461 kts | 133° |
| 2026-05-06 19:01 | 44.79778 | 13.46460 | 34924 ft | 461 kts | 133° |
| 2026-05-06 19:01 | 44.76069 | 13.53766 | 34937 ft | 461 kts | 133° |
| 2026-05-06 19:02 | 44.72315 | 13.61142 | 34937 ft | 461 kts | 133° |
| 2026-05-06 19:02 | 44.68608 | 13.68422 | 34944 ft | 461 kts | 133° |
| 2026-05-06 19:03 | 44.64869 | 13.75744 | 34949 ft | 461 kts | 133° |
| 2026-05-06 19:03 | 44.61126 | 13.83047 | 34947 ft | 461 kts | 132° |
| 2026-05-06 19:04 | 44.57373 | 13.90351 | 34945 ft | 461 kts | 132° |
| 2026-05-06 19:04 | 44.53628 | 13.97624 | 34944 ft | 461 kts | 132° |
| 2026-05-06 19:05 | 44.49874 | 14.04906 | 34943 ft | 461 kts | 132° |
| 2026-05-06 19:05 | 44.46108 | 14.12185 | 34953 ft | 461 kts | 132° |
| 2026-05-06 19:06 | 44.42339 | 14.19446 | 34952 ft | 461 kts | 132° |
| 2026-05-06 19:06 | 44.38555 | 14.26699 | 34953 ft | 461 kts | 132° |
| 2026-05-06 19:07 | 44.34855 | 14.34050 | 34955 ft | 463 kts | 130° |
| 2026-05-06 19:07 | 44.31220 | 14.41487 | 34961 ft | 464 kts | 131° |
| 2026-05-06 19:08 | 44.27571 | 14.48920 | 34959 ft | 464 kts | 131° |
| 2026-05-06 19:08 | 44.23908 | 14.56358 | 34961 ft | 465 kts | 131° |
| 2026-05-06 19:09 | 44.20236 | 14.63789 | 34962 ft | 465 kts | 131° |
| 2026-05-06 19:09 | 44.16558 | 14.71202 | 34976 ft | 466 kts | 131° |
| 2026-05-06 19:10 | 44.12863 | 14.78650 | 34967 ft | 467 kts | 131° |
| 2026-05-06 19:10 | 44.09161 | 14.86072 | 34961 ft | 468 kts | 131° |
| 2026-05-06 19:11 | 44.05447 | 14.93513 | 34972 ft | 468 kts | 132° |
| 2026-05-06 19:11 | 44.01722 | 15.00961 | 34972 ft | 469 kts | 132° |
| 2026-05-06 19:12 | 43.98016 | 15.08343 | 34986 ft | 469 kts | 132° |
| 2026-05-06 19:12 | 43.94274 | 15.15782 | 34985 ft | 469 kts | 133° |
| 2026-05-06 19:13 | 43.90236 | 15.22821 | 34987 ft | 466 kts | 136° |
| 2026-05-06 19:13 | 43.86131 | 15.29762 | 34989 ft | 466 kts | 136° |
| 2026-05-06 19:14 | 43.82021 | 15.36720 | 34987 ft | 466 kts | 136° |
| 2026-05-06 19:14 | 43.77906 | 15.43657 | 34982 ft | 467 kts | 136° |
| 2026-05-06 19:15 | 43.73773 | 15.50615 | 34980 ft | 467 kts | 136° |
| 2026-05-06 19:15 | 43.69633 | 15.57565 | 34977 ft | 468 kts | 136° |
| 2026-05-06 19:16 | 43.65494 | 15.64507 | 34981 ft | 468 kts | 136° |
| 2026-05-06 19:16 | 43.61334 | 15.71454 | 34986 ft | 469 kts | 136° |
| 2026-05-06 19:17 | 43.57866 | 15.77230 | 34989 ft | 470 kts | 136° |
| 2026-05-06 19:17 | 43.53691 | 15.84188 | 34989 ft | 470 kts | 136° |
| 2026-05-06 19:18 | 43.49514 | 15.91134 | 35003 ft | 471 kts | 136° |
| 2026-05-06 19:18 | 43.45325 | 15.98066 | 35008 ft | 471 kts | 136° |
| 2026-05-06 19:19 | 43.41130 | 16.04995 | 35019 ft | 471 kts | 136° |
| 2026-05-06 19:19 | 43.36933 | 16.11912 | 35014 ft | 471 kts | 136° |
| 2026-05-06 19:20 | 43.32755 | 16.18787 | 35010 ft | 471 kts | 136° |
| 2026-05-06 19:20 | 43.28546 | 16.25697 | 35012 ft | 471 kts | 136° |
| 2026-05-06 19:21 | 43.24321 | 16.32602 | 35010 ft | 472 kts | 136° |
| 2026-05-06 19:21 | 43.20096 | 16.39495 | 35011 ft | 472 kts | 136° |
| 2026-05-06 19:22 | 43.15869 | 16.46387 | 35012 ft | 472 kts | 136° |
| 2026-05-06 19:22 | 43.11637 | 16.53265 | 35004 ft | 473 kts | 136° |
| 2026-05-06 19:23 | 43.07673 | 16.60497 | 35008 ft | 475 kts | 132° |
| 2026-05-06 19:23 | 43.03776 | 16.67794 | 35009 ft | 475 kts | 132° |
| 2026-05-06 19:24 | 42.99865 | 16.75067 | 35013 ft | 475 kts | 132° |
| 2026-05-06 19:24 | 42.95950 | 16.82340 | 35014 ft | 474 kts | 132° |
| 2026-05-06 19:25 | 42.92034 | 16.89593 | 35017 ft | 474 kts | 132° |
| 2026-05-06 19:25 | 42.88135 | 16.96794 | 35022 ft | 474 kts | 132° |
| 2026-05-06 19:26 | 42.84202 | 17.04034 | 35023 ft | 475 kts | 132° |
| 2026-05-06 19:26 | 42.80268 | 17.11264 | 35020 ft | 475 kts | 132° |
| 2026-05-06 19:27 | 42.76327 | 17.18489 | 35021 ft | 476 kts | 132° |
| 2026-05-06 19:27 | 42.72367 | 17.25724 | 35025 ft | 476 kts | 132° |
| 2026-05-06 19:28 | 42.68409 | 17.32937 | 35029 ft | 477 kts | 132° |
| 2026-05-06 19:28 | 42.64447 | 17.40154 | 35028 ft | 477 kts | 131° |
| 2026-05-06 19:29 | 42.60477 | 17.47371 | 35028 ft | 477 kts | 132° |
| 2026-05-06 19:29 | 42.56486 | 17.54589 | 35033 ft | 478 kts | 131° |
| 2026-05-06 19:30 | 42.52501 | 17.61796 | 35034 ft | 478 kts | 131° |
| 2026-05-06 19:30 | 42.48507 | 17.69008 | 35042 ft | 478 kts | 131° |
| 2026-05-06 19:31 | 42.44502 | 17.76211 | 35045 ft | 478 kts | 131° |
| 2026-05-06 19:31 | 42.38492 | 17.86992 | 35048 ft | 478 kts | 131° |
| 2026-05-06 19:32 | 42.34478 | 17.94175 | 35048 ft | 478 kts | 131° |
| 2026-05-06 19:32 | 42.30464 | 18.01330 | 35054 ft | 478 kts | 131° |
| 2026-05-06 19:33 | 42.26443 | 18.08487 | 35057 ft | 478 kts | 131° |
| 2026-05-06 19:33 | 42.22438 | 18.15593 | 35056 ft | 478 kts | 131° |
| 2026-05-06 19:34 | 42.18407 | 18.22738 | 35054 ft | 478 kts | 131° |
| 2026-05-06 19:34 | 42.14370 | 18.29872 | 35055 ft | 479 kts | 131° |
| 2026-05-06 19:35 | 42.10331 | 18.37004 | 35054 ft | 479 kts | 131° |
| 2026-05-06 19:35 | 42.06272 | 18.44133 | 35059 ft | 479 kts | 131° |
| 2026-05-06 19:36 | 42.02224 | 18.51239 | 35063 ft | 479 kts | 131° |
| 2026-05-06 19:36 | 41.97959 | 18.58103 | 35063 ft | 478 kts | 134° |
| 2026-05-06 19:37 | 41.93643 | 18.64887 | 35069 ft | 478 kts | 134° |
| 2026-05-06 19:37 | 41.90125 | 18.70605 | 35066 ft | 479 kts | 133° |
| 2026-05-06 19:38 | 41.85197 | 18.78689 | 35076 ft | 479 kts | 133° |
| 2026-05-06 19:38 | 41.80980 | 18.85604 | 35080 ft | 479 kts | 132° |
| 2026-05-06 19:39 | 41.76760 | 18.92506 | 35076 ft | 478 kts | 132° |
| 2026-05-06 19:39 | 41.72537 | 18.99391 | 35066 ft | 478 kts | 133° |
| 2026-05-06 19:40 | 41.68308 | 19.06269 | 35084 ft | 478 kts | 132° |
| 2026-05-06 19:40 | 41.64078 | 19.13133 | 35081 ft | 478 kts | 132° |
| 2026-05-06 19:41 | 41.59850 | 19.19984 | 35084 ft | 478 kts | 132° |
| 2026-05-06 19:41 | 41.55610 | 19.26833 | 35089 ft | 478 kts | 132° |
| 2026-05-06 19:42 | 41.51363 | 19.33673 | 35096 ft | 478 kts | 132° |
| 2026-05-06 19:42 | 41.47132 | 19.40459 | 35103 ft | 479 kts | 132° |
| 2026-05-06 19:43 | 41.42844 | 19.47318 | 35104 ft | 479 kts | 132° |
| 2026-05-06 19:43 | 41.38578 | 19.54142 | 35109 ft | 479 kts | 132° |
| 2026-05-06 19:44 | 41.34326 | 19.60970 | 35112 ft | 479 kts | 132° |
| 2026-05-06 19:44 | 41.30051 | 19.67796 | 35108 ft | 480 kts | 132° |
| 2026-05-06 19:45 | 41.25767 | 19.74611 | 35112 ft | 480 kts | 132° |
| 2026-05-06 19:45 | 41.21467 | 19.81426 | 35105 ft | 481 kts | 132° |
| 2026-05-06 19:46 | 41.17170 | 19.88235 | 35105 ft | 482 kts | 132° |
| 2026-05-06 19:46 | 41.12849 | 19.95059 | 35105 ft | 482 kts | 132° |
| 2026-05-06 19:47 | 41.08558 | 20.01822 | 35102 ft | 483 kts | 132° |
| 2026-05-06 19:47 | 41.04223 | 20.08634 | 35098 ft | 483 kts | 132° |
| 2026-05-06 19:48 | 40.99876 | 20.15460 | 35096 ft | 483 kts | 132° |
| 2026-05-06 19:48 | 40.95533 | 20.22261 | 35100 ft | 483 kts | 132° |
| 2026-05-06 19:49 | 40.91177 | 20.29037 | 35097 ft | 484 kts | 132° |
| 2026-05-06 19:49 | 40.86810 | 20.35832 | 35104 ft | 484 kts | 131° |
| 2026-05-06 19:50 | 40.82482 | 20.42589 | 35100 ft | 484 kts | 131° |
| 2026-05-06 19:50 | 40.78111 | 20.49382 | 35101 ft | 484 kts | 131° |
| 2026-05-06 19:51 | 40.73744 | 20.56143 | 35103 ft | 484 kts | 131° |
| 2026-05-06 19:51 | 40.69372 | 20.62891 | 35105 ft | 484 kts | 131° |
| 2026-05-06 19:52 | 40.65004 | 20.69620 | 35103 ft | 484 kts | 131° |
| 2026-05-06 19:52 | 40.60617 | 20.76369 | 35110 ft | 485 kts | 131° |
| 2026-05-06 19:53 | 40.56222 | 20.83116 | 35115 ft | 485 kts | 131° |
| 2026-05-06 19:53 | 40.51844 | 20.89816 | 35106 ft | 486 kts | 131° |
| 2026-05-06 19:54 | 40.47322 | 20.96435 | 35103 ft | 486 kts | 138° |
| 2026-05-06 19:54 | 40.42264 | 21.02321 | 35103 ft | 486 kts | 140° |
| 2026-05-06 19:55 | 40.37169 | 21.08164 | 35106 ft | 486 kts | 140° |
| 2026-05-06 19:55 | 40.32083 | 21.14014 | 35099 ft | 486 kts | 140° |
| 2026-05-06 19:56 | 40.26993 | 21.19856 | 35097 ft | 486 kts | 140° |
| 2026-05-06 19:56 | 40.22755 | 21.24710 | 35098 ft | 486 kts | 139° |
| 2026-05-06 19:57 | 40.17664 | 21.30529 | 35096 ft | 486 kts | 139° |
| 2026-05-06 19:57 | 40.12525 | 21.36386 | 35097 ft | 486 kts | 139° |
| 2026-05-06 19:58 | 40.07459 | 21.42157 | 35089 ft | 487 kts | 139° |
| 2026-05-06 19:58 | 40.02322 | 21.48001 | 35086 ft | 486 kts | 139° |
| 2026-05-06 19:59 | 39.97250 | 21.53761 | 35090 ft | 486 kts | 139° |
| 2026-05-06 19:59 | 39.92244 | 21.59679 | 35084 ft | 485 kts | 137° |
| 2026-05-06 20:00 | 39.87274 | 21.65626 | 35093 ft | 485 kts | 137° |
| 2026-05-06 20:00 | 39.82306 | 21.71554 | 35084 ft | 484 kts | 138° |
| 2026-05-06 20:01 | 39.77342 | 21.77467 | 35083 ft | 483 kts | 138° |
| 2026-05-06 20:01 | 39.72387 | 21.83348 | 35067 ft | 482 kts | 138° |
| 2026-05-06 20:02 | 39.67438 | 21.89223 | 35073 ft | 482 kts | 138° |
| 2026-05-06 20:02 | 39.62486 | 21.95086 | 35076 ft | 481 kts | 138° |
| 2026-05-06 20:03 | 39.57539 | 22.00930 | 35063 ft | 480 kts | 138° |
| 2026-05-06 20:03 | 39.52639 | 22.06707 | 35057 ft | 480 kts | 138° |
| 2026-05-06 20:04 | 39.47700 | 22.12517 | 35060 ft | 479 kts | 138° |
| 2026-05-06 20:04 | 39.42758 | 22.18319 | 35045 ft | 479 kts | 138° |
| 2026-05-06 20:05 | 39.37829 | 22.24093 | 35056 ft | 478 kts | 137° |
| 2026-05-06 20:05 | 39.32889 | 22.29871 | 35066 ft | 478 kts | 138° |
| 2026-05-06 20:06 | 39.27960 | 22.35624 | 35068 ft | 478 kts | 138° |
| 2026-05-06 20:06 | 39.23023 | 22.41375 | 35062 ft | 477 kts | 138° |
| 2026-05-06 20:07 | 39.18091 | 22.47109 | 35052 ft | 477 kts | 138° |
| 2026-05-06 20:07 | 39.13151 | 22.52841 | 35071 ft | 477 kts | 138° |
| 2026-05-06 20:08 | 39.08220 | 22.58550 | 35060 ft | 476 kts | 138° |
| 2026-05-06 20:08 | 39.03286 | 22.64254 | 35058 ft | 476 kts | 138° |
| 2026-05-06 20:09 | 38.98361 | 22.69934 | 35057 ft | 476 kts | 138° |
| 2026-05-06 20:09 | 38.93428 | 22.75617 | 35058 ft | 475 kts | 139° |
| 2026-05-06 20:10 | 38.88525 | 22.81249 | 35064 ft | 475 kts | 139° |
| 2026-05-06 20:10 | 38.83597 | 22.86896 | 35068 ft | 475 kts | 139° |
| 2026-05-06 20:11 | 38.78658 | 22.92548 | 35066 ft | 475 kts | 139° |
| 2026-05-06 20:11 | 38.73725 | 22.98185 | 35075 ft | 475 kts | 139° |
| 2026-05-06 20:12 | 38.68784 | 23.03816 | 35064 ft | 475 kts | 139° |
| 2026-05-06 20:12 | 38.63844 | 23.09439 | 35058 ft | 475 kts | 139° |
| 2026-05-06 20:13 | 38.58904 | 23.15045 | 35073 ft | 475 kts | 139° |
| 2026-05-06 20:13 | 38.53955 | 23.20652 | 35063 ft | 475 kts | 139° |
| 2026-05-06 20:14 | 38.49009 | 23.26248 | 35078 ft | 475 kts | 139° |
| 2026-05-06 20:14 | 38.44050 | 23.31852 | 35057 ft | 476 kts | 139° |
| 2026-05-06 20:15 | 38.39091 | 23.37444 | 35082 ft | 476 kts | 139° |
| 2026-05-06 20:15 | 38.34125 | 23.43026 | 35087 ft | 476 kts | 139° |
| 2026-05-06 20:16 | 38.29157 | 23.48607 | 35090 ft | 476 kts | 139° |
| 2026-05-06 20:16 | 38.24184 | 23.54182 | 35107 ft | 476 kts | 139° |
| 2026-05-06 20:17 | 38.19205 | 23.59749 | 35108 ft | 477 kts | 139° |
| 2026-05-06 20:17 | 38.14214 | 23.65321 | 35101 ft | 477 kts | 139° |
| 2026-05-06 20:18 | 38.09244 | 23.70856 | 35099 ft | 477 kts | 139° |
| 2026-05-06 20:18 | 38.04288 | 23.76371 | 35110 ft | 476 kts | 139° |
| 2026-05-06 20:19 | 37.99293 | 23.81915 | 35110 ft | 476 kts | 139° |
| 2026-05-06 20:19 | 37.94303 | 23.87445 | 35110 ft | 476 kts | 139° |
| 2026-05-06 20:20 | 37.89315 | 23.92964 | 35111 ft | 476 kts | 139° |
| 2026-05-06 20:20 | 37.84322 | 23.98472 | 35110 ft | 476 kts | 139° |
| 2026-05-06 20:21 | 37.79333 | 24.03970 | 35107 ft | 476 kts | 139° |
| 2026-05-06 20:21 | 37.74344 | 24.09460 | 35100 ft | 475 kts | 139° |
| 2026-05-06 20:22 | 37.69352 | 24.14939 | 35093 ft | 475 kts | 140° |
| 2026-05-06 20:22 | 37.64352 | 24.20417 | 35093 ft | 475 kts | 140° |
| 2026-05-06 20:23 | 37.59355 | 24.25879 | 35092 ft | 475 kts | 140° |
| 2026-05-06 20:23 | 37.54201 | 24.31074 | 35091 ft | 474 kts | 148° |
| 2026-05-06 20:24 | 37.48614 | 24.35472 | 35093 ft | 474 kts | 149° |
| 2026-05-06 20:24 | 37.43018 | 24.39847 | 35089 ft | 474 kts | 149° |
| 2026-05-06 20:25 | 37.37455 | 24.44210 | 35086 ft | 474 kts | 149° |
| 2026-05-06 20:25 | 37.31861 | 24.48587 | 35088 ft | 473 kts | 149° |
| 2026-05-06 20:26 | 37.26268 | 24.52958 | 35088 ft | 473 kts | 149° |
| 2026-05-06 20:26 | 37.20674 | 24.57322 | 35091 ft | 473 kts | 149° |
| 2026-05-06 20:27 | 37.15073 | 24.61684 | 35090 ft | 474 kts | 149° |
| 2026-05-06 20:27 | 37.09470 | 24.66039 | 35095 ft | 474 kts | 149° |
| 2026-05-06 20:28 | 37.03866 | 24.70389 | 35094 ft | 474 kts | 149° |
| 2026-05-06 20:28 | 36.98253 | 24.74733 | 35095 ft | 474 kts | 149° |
| 2026-05-06 20:29 | 36.92651 | 24.79066 | 35098 ft | 473 kts | 149° |
| 2026-05-06 20:29 | 36.87044 | 24.83403 | 35112 ft | 474 kts | 149° |
| 2026-05-06 20:30 | 36.78666 | 24.89881 | 34078 ft | 473 kts | 149° |
| 2026-05-06 20:30 | 36.75837 | 24.92064 | 32815 ft | 483 kts | 149° |
| 2026-05-06 20:31 | 36.72951 | 24.94287 | 31586 ft | 493 kts | 149° |
| 2026-05-06 20:31 | 36.70057 | 24.96515 | 30606 ft | 496 kts | 149° |
| 2026-05-06 20:31 | 36.67138 | 24.98759 | 29861 ft | 491 kts | 149° |
| 2026-05-06 20:31 | 36.64210 | 25.01007 | 29178 ft | 485 kts | 149° |
| 2026-05-06 20:32 | 36.61354 | 25.03196 | 28518 ft | 479 kts | 149° |
| 2026-05-06 20:32 | 36.58563 | 25.05332 | 27901 ft | 473 kts | 149° |
| 2026-05-06 20:32 | 36.55744 | 25.07489 | 27306 ft | 467 kts | 149° |
| 2026-05-06 20:32 | 36.53036 | 25.09560 | 26718 ft | 461 kts | 149° |
| 2026-05-06 20:33 | 36.50285 | 25.11662 | 26130 ft | 455 kts | 149° |
| 2026-05-06 20:33 | 36.47594 | 25.13716 | 25594 ft | 450 kts | 149° |
| 2026-05-06 20:33 | 36.44973 | 25.15715 | 25053 ft | 445 kts | 149° |
| 2026-05-06 20:33 | 36.42346 | 25.17713 | 24499 ft | 441 kts | 149° |
| 2026-05-06 20:34 | 36.39748 | 25.19689 | 23942 ft | 437 kts | 149° |
| 2026-05-06 20:34 | 36.37161 | 25.21658 | 23354 ft | 433 kts | 149° |
| 2026-05-06 20:34 | 36.34606 | 25.23602 | 22761 ft | 429 kts | 149° |
| 2026-05-06 20:34 | 36.32074 | 25.25525 | 22189 ft | 424 kts | 149° |
| 2026-05-06 20:35 | 36.29571 | 25.27426 | 21632 ft | 420 kts | 149° |
| 2026-05-06 20:35 | 36.27094 | 25.29303 | 21090 ft | 416 kts | 149° |
| 2026-05-06 20:35 | 36.24639 | 25.31164 | 20562 ft | 411 kts | 149° |
| 2026-05-06 20:35 | 36.22209 | 25.33004 | 20070 ft | 407 kts | 149° |
| 2026-05-06 20:36 | 36.20608 | 25.34216 | 19746 ft | 405 kts | 149° |
| 2026-05-06 20:36 | 36.18207 | 25.36032 | 19272 ft | 404 kts | 149° |
| 2026-05-06 20:36 | 36.15811 | 25.37844 | 18819 ft | 403 kts | 149° |
| 2026-05-06 20:36 | 36.13416 | 25.39648 | 18371 ft | 403 kts | 150° |
| 2026-05-06 20:37 | 36.10890 | 25.41114 | 17860 ft | 401 kts | 162° |
| 2026-05-06 20:37 | 36.08243 | 25.42185 | 17369 ft | 401 kts | 163° |
| 2026-05-06 20:37 | 36.05582 | 25.43233 | 16877 ft | 401 kts | 163° |
| 2026-05-06 20:37 | 36.02935 | 25.44283 | 16404 ft | 400 kts | 163° |
| 2026-05-06 20:38 | 36.00295 | 25.45338 | 15946 ft | 395 kts | 163° |
| 2026-05-06 20:38 | 35.97700 | 25.46381 | 15499 ft | 388 kts | 163° |
| 2026-05-06 20:38 | 35.95148 | 25.47407 | 15060 ft | 382 kts | 163° |
| 2026-05-06 20:38 | 35.92635 | 25.48416 | 14635 ft | 377 kts | 163° |
| 2026-05-06 20:39 | 35.90162 | 25.49408 | 14212 ft | 372 kts | 163° |
| 2026-05-06 20:39 | 35.87716 | 25.50390 | 13750 ft | 367 kts | 163° |
| 2026-05-06 20:39 | 35.85305 | 25.51357 | 13286 ft | 362 kts | 163° |
| 2026-05-06 20:39 | 35.82923 | 25.52313 | 12856 ft | 357 kts | 163° |
| 2026-05-06 20:40 | 35.80573 | 25.53254 | 12459 ft | 353 kts | 162° |
| 2026-05-06 20:40 | 35.78230 | 25.54190 | 12044 ft | 353 kts | 162° |
| 2026-05-06 20:40 | 35.75887 | 25.55127 | 11619 ft | 354 kts | 162° |
| 2026-05-06 20:40 | 35.73546 | 25.56063 | 11208 ft | 354 kts | 162° |
| 2026-05-06 20:41 | 35.71207 | 25.56997 | 10871 ft | 348 kts | 162° |
| 2026-05-06 20:41 | 35.69015 | 25.58118 | 10663 ft | 337 kts | 148° |
| 2026-05-06 20:41 | 35.67178 | 25.59820 | 10508 ft | 324 kts | 140° |
| 2026-05-06 20:41 | 35.65465 | 25.61554 | 10370 ft | 313 kts | 140° |
| 2026-05-06 20:42 | 35.63814 | 25.63218 | 10162 ft | 304 kts | 140° |
| 2026-05-06 20:42 | 35.62173 | 25.64858 | 9745 ft | 304 kts | 140° |
| 2026-05-06 20:42 | 35.60393 | 25.66231 | 9288 ft | 303 kts | 161° |
| 2026-05-06 20:42 | 35.58330 | 25.66551 | 8872 ft | 299 kts | 187° |
| 2026-05-06 20:43 | 35.56372 | 25.65816 | 8500 ft | 293 kts | 211° |
| 2026-05-06 20:43 | 35.54852 | 25.64255 | 8158 ft | 287 kts | 234° |
| 2026-05-06 20:43 | 35.53950 | 25.62102 | 7842 ft | 283 kts | 257° |
| 2026-05-06 20:43 | 35.53784 | 25.59734 | 7550 ft | 278 kts | 276° |
| 2026-05-06 20:44 | 35.53863 | 25.57367 | 7239 ft | 279 kts | 264° |
| 2026-05-06 20:44 | 35.53250 | 25.55102 | 6916 ft | 282 kts | 244° |
| 2026-05-06 20:44 | 35.52225 | 25.53035 | 6586 ft | 284 kts | 239° |
| 2026-05-06 20:44 | 35.51148 | 25.51003 | 6237 ft | 284 kts | 238° |
| 2026-05-06 20:45 | 35.50079 | 25.48972 | 5883 ft | 281 kts | 239° |
| 2026-05-06 20:45 | 35.49028 | 25.46959 | 5511 ft | 280 kts | 239° |
| 2026-05-06 20:45 | 35.47988 | 25.44954 | 5166 ft | 277 kts | 239° |
| 2026-05-06 20:45 | 35.46963 | 25.42990 | 4894 ft | 272 kts | 236° |
| 2026-05-06 20:46 | 35.45665 | 25.41346 | 4717 ft | 264 kts | 215° |
| 2026-05-06 20:46 | 35.44028 | 25.40510 | 4663 ft | 250 kts | 186° |
| 2026-05-06 20:46 | 35.42390 | 25.40780 | 4721 ft | 229 kts | 157° |
| 2026-05-06 20:46 | 35.41035 | 25.41655 | 4689 ft | 211 kts | 149° |
| 2026-05-06 20:47 | 35.39824 | 25.42546 | 4716 ft | 199 kts | 149° |
| 2026-05-06 20:47 | 35.38627 | 25.43405 | 4771 ft | 199 kts | 150° |
| 2026-05-06 20:47 | 35.37406 | 25.44204 | 4692 ft | 199 kts | 159° |
| 2026-05-06 20:47 | 35.36064 | 25.44296 | 4530 ft | 196 kts | 202° |
| 2026-05-06 20:48 | 35.35055 | 25.43288 | 4290 ft | 192 kts | 246° |
| 2026-05-06 20:48 | 35.34676 | 25.41711 | 4041 ft | 191 kts | 257° |
| 2026-05-06 20:48 | 35.34296 | 25.40183 | 3770 ft | 190 kts | 251° |
| 2026-05-06 20:48 | 35.33805 | 25.38704 | 3475 ft | 189 kts | 247° |
| 2026-05-06 20:49 | 35.33253 | 25.37213 | 3223 ft | 195 kts | 245° |
| 2026-05-06 20:49 | 35.32759 | 25.35660 | 2989 ft | 195 kts | 262° |
| 2026-05-06 20:49 | 35.32763 | 25.34055 | 2873 ft | 185 kts | 277° |
| 2026-05-06 20:49 | 35.32910 | 25.32551 | 2764 ft | 169 kts | 277° |
| 2026-05-06 20:50 | 35.33032 | 25.31143 | 2558 ft | 166 kts | 276° |
| 2026-05-06 20:50 | 35.33139 | 25.29729 | 2291 ft | 167 kts | 275° |
| 2026-05-06 20:50 | 35.33246 | 25.28312 | 2058 ft | 167 kts | 274° |
| 2026-05-06 20:50 | 35.33352 | 25.26919 | 1974 ft | 163 kts | 276° |
| 2026-05-06 20:51 | 35.33492 | 25.25542 | 1762 ft | 162 kts | 277° |
| 2026-05-06 20:51 | 35.33657 | 25.24268 | 1448 ft | 141 kts | 277° |
| 2026-05-06 20:51 | 35.33712 | 25.23091 | 1107 ft | 138 kts | 266° |
| 2026-05-06 20:51 | 35.33702 | 25.21908 | 897 ft | 139 kts | 271° |
| 2026-05-06 20:52 | 35.33783 | 25.20735 | 640 ft | 138 kts | 274° |
| 2026-05-06 20:52 | 35.33874 | 25.19563 | 349 ft | 137 kts | 273° |
| 2026-05-06 20:52 | 35.33952 | 25.18394 | 92 ft | 136 kts | 272° |
| 2026-05-06 20:52 | 35.34015 | 25.17455 | 91 ft | 81 kts | 274° |
| 2026-05-06 20:53 | 35.34044 | 25.17003 | 92 ft | 33 kts | 275° |
| 2026-05-06 20:53 | 35.34062 | 25.16739 | 91 ft | 21 kts | 275° |
| 2026-05-06 20:53 | 35.33993 | 25.16705 | 89 ft | 17 kts | 122° |
| 2026-05-06 20:53 | 35.33960 | 25.16844 | 92 ft | 18 kts | 92° |
| 2026-05-06 20:54 | 35.33954 | 25.16994 | 92 ft | 2 kts | 93° |
| 2026-05-06 20:54 | 35.33949 | 25.17021 | 90 ft | 4 kts | 103° |
| 2026-05-06 20:54 | 35.33940 | 25.17067 | 91 ft | 7 kts | 103° |
| 2026-05-06 20:54 | 35.33936 | 25.17135 | 89 ft | 9 kts | 93° |
| 2026-05-06 20:55 | 35.33932 | 25.17225 | 89 ft | 12 kts | 93° |
| 2026-05-06 20:55 | 35.33927 | 25.17324 | 90 ft | 2 kts | 93° |
| 2026-05-06 20:55 | 35.33924 | 25.17351 | 91 ft | 4 kts | 117° |
| 2026-05-06 20:55 | 35.33913 | 25.17357 | 91 ft | 0 kts | 191° |
| 2026-05-06 20:56 | 35.33905 | 25.17355 | 90 ft | 5 kts | 191° |
| 2026-05-06 20:56 | 35.33853 | 25.17331 | 93 ft | 10 kts | 222° |
| 2026-05-06 20:56 | 35.33869 | 25.17279 | 90 ft | 4 kts | 324° |
| 2026-05-06 20:56 | 35.33873 | 25.17275 | 90 ft | 0 kts | 319° |